createdAt,value
2018-07-06T00:00:36.328Z,7.67
2018-07-06T00:03:10.502Z,6.80
2018-07-06T00:05:44.457Z,6.87
2018-07-06T00:08:18.367Z,7.70
2018-07-06T00:10:52.277Z,7.53
2018-07-06T00:13:26.276Z,7.13
2018-07-06T00:16:00.091Z,6.53
2018-07-06T00:18:33.987Z,7.07
2018-07-06T00:21:07.902Z,7.17
2018-07-06T00:23:41.905Z,7.00
2018-07-06T00:26:15.816Z,7.27
2018-07-06T00:28:49.821Z,6.83
2018-07-06T00:31:23.734Z,7.27
2018-07-06T00:33:57.651Z,6.70
2018-07-06T00:36:31.445Z,7.47
2018-07-06T00:39:05.315Z,7.57
2018-07-06T00:41:39.072Z,7.63
2018-07-06T00:44:13.269Z,7.07
2018-07-06T00:46:47.181Z,6.60
2018-07-06T00:49:20.994Z,7.17
2018-07-06T00:51:54.709Z,7.23
2018-07-06T00:54:28.490Z,7.13
2018-07-06T00:57:02.500Z,7.13
2018-07-06T00:59:36.418Z,6.70
2018-07-06T01:02:10.067Z,7.57
2018-07-06T01:04:43.636Z,7.47
2018-07-06T01:07:17.621Z,7.80
2018-07-06T01:09:51.530Z,7.50
2018-07-06T01:12:30.863Z,7.10
2018-07-06T01:15:38.565Z,7.70
2018-07-06T01:18:12.473Z,7.83
2018-07-06T01:20:46.897Z,7.70
2018-07-06T01:23:20.801Z,7.30
2018-07-06T01:25:54.605Z,7.83
2018-07-06T01:28:28.244Z,7.90
2018-07-06T01:31:02.218Z,6.83
2018-07-06T01:33:36.227Z,7.37
2018-07-06T01:36:09.975Z,7.40
2018-07-06T01:38:44.044Z,7.87
2018-07-06T01:41:17.789Z,8.07
2018-07-06T01:43:51.652Z,7.67
2018-07-06T01:46:25.766Z,7.47
2018-07-06T01:48:59.782Z,7.40
2018-07-06T01:51:33.788Z,7.53
2018-07-06T01:54:07.600Z,7.40
2018-07-06T01:56:41.171Z,7.90
2018-07-06T01:59:15.096Z,7.33
2018-07-06T02:01:49.010Z,7.40
2018-07-06T02:04:22.738Z,7.47
2018-07-06T02:06:57.540Z,7.50
2018-07-06T02:09:31.361Z,7.30
2018-07-06T02:12:05.088Z,7.57
2018-07-06T02:14:38.854Z,7.47
2018-07-06T02:17:12.663Z,7.30
2018-07-06T02:19:46.774Z,7.50
2018-07-06T02:22:20.680Z,7.13
2018-07-06T02:24:54.356Z,7.57
2018-07-06T02:27:28.086Z,7.30
2018-07-06T02:30:01.695Z,6.67
2018-07-06T02:32:35.752Z,6.80
2018-07-06T02:35:09.705Z,7.20
2018-07-06T02:37:43.562Z,7.30
2018-07-06T02:40:17.624Z,7.50
2018-07-06T02:42:51.533Z,7.27
2018-07-06T02:45:25.404Z,6.43
2018-07-06T02:47:59.351Z,6.83
2018-07-06T02:50:33.465Z,6.13
2018-07-06T02:53:07.157Z,6.10
2018-07-06T02:55:43.224Z,5.93
2018-07-06T02:58:17.039Z,6.83
2018-07-06T03:00:50.962Z,7.20
2018-07-06T03:03:24.744Z,6.93
2018-07-06T03:05:58.751Z,6.57
2018-07-06T03:08:32.437Z,7.20
2018-07-06T03:11:06.170Z,6.23
2018-07-06T03:13:39.973Z,6.87
2018-07-06T03:16:13.874Z,6.33
2018-07-06T03:18:47.591Z,6.00
2018-07-06T03:21:21.587Z,6.17
2018-07-06T03:23:55.327Z,6.37
2018-07-06T03:26:29.192Z,5.93
2018-07-06T03:29:03.103Z,5.67
2018-07-06T03:31:37.213Z,5.37
2018-07-06T03:34:10.834Z,5.80
2018-07-06T03:36:44.825Z,5.53
2018-07-06T03:39:18.591Z,5.90
2018-07-06T03:41:52.233Z,5.07
2018-07-06T03:44:26.142Z,4.67
2018-07-06T03:47:00.168Z,5.30
2018-07-06T03:49:34.164Z,4.57
2018-07-06T03:52:08.377Z,4.93
2018-07-06T03:54:42.283Z,4.00
2018-07-06T03:57:16.391Z,4.50
2018-07-06T03:59:49.965Z,4.23
2018-07-06T04:02:23.875Z,4.17
2018-07-06T04:04:57.876Z,3.97
2018-07-06T04:07:31.930Z,4.10
2018-07-06T04:10:05.511Z,4.47
2018-07-06T04:12:39.264Z,4.43
2018-07-06T04:15:13.239Z,4.73
2018-07-06T04:17:47.455Z,4.90
2018-07-06T04:20:21.508Z,6.30
2018-07-06T04:22:55.169Z,7.93
2018-07-06T04:25:29.074Z,8.53
2018-07-06T04:28:02.980Z,8.33
2018-07-06T04:30:36.888Z,8.90
2018-07-06T04:33:10.698Z,8.23
2018-07-06T04:35:44.404Z,8.73
2018-07-06T04:38:19.131Z,8.73
2018-07-06T04:40:52.976Z,7.30
2018-07-06T04:43:26.962Z,7.70
2018-07-06T04:46:00.755Z,7.13
2018-07-06T04:48:34.652Z,7.47
2018-07-06T04:51:08.767Z,8.23
2018-07-06T04:53:42.541Z,8.53
2018-07-06T04:56:16.784Z,8.43
2018-07-06T04:58:50.795Z,8.57
2018-07-06T05:01:24.572Z,9.40
2018-07-06T05:03:58.609Z,10.27
2018-07-06T05:06:32.520Z,10.33
2018-07-06T05:09:06.240Z,10.93
2018-07-06T05:11:40.131Z,11.13
2018-07-06T05:14:14.147Z,10.43
2018-07-06T05:17:13.959Z,10.47
2018-07-06T05:19:47.785Z,10.40
2018-07-06T05:22:21.775Z,9.90
2018-07-06T05:24:55.680Z,9.13
2018-07-06T05:27:29.361Z,9.00
2018-07-06T05:30:03.021Z,8.53
2018-07-06T05:32:36.636Z,8.73
2018-07-06T05:35:10.621Z,9.37
2018-07-06T05:37:44.655Z,8.93
2018-07-06T05:40:18.514Z,8.00
2018-07-06T05:42:52.725Z,8.37
2018-07-06T05:45:26.499Z,8.77
2018-07-06T05:48:00.335Z,9.23
2018-07-06T05:50:34.246Z,8.70
2018-07-06T05:53:08.087Z,8.60
2018-07-06T05:55:41.868Z,8.63
2018-07-06T05:58:15.881Z,8.80
2018-07-06T06:00:49.558Z,7.27
2018-07-06T06:03:23.398Z,7.10
2018-07-06T06:05:57.086Z,7.60
2018-07-06T06:08:24.841Z,7.10
2018-07-06T06:10:53.280Z,6.70
2018-07-06T06:13:21.905Z,7.13
2018-07-06T06:15:50.396Z,6.13
2018-07-06T06:18:18.805Z,6.27
2018-07-06T06:20:47.265Z,6.77
2018-07-06T06:23:15.828Z,6.30
2018-07-06T06:25:44.514Z,6.23
2018-07-06T06:28:13.156Z,6.03
2018-07-06T06:30:41.883Z,7.23
2018-07-06T06:33:10.466Z,6.97
2018-07-06T06:35:39.056Z,6.80
2018-07-06T06:38:07.631Z,7.03
2018-07-06T06:40:36.221Z,7.67
2018-07-06T06:43:04.700Z,6.87
2018-07-06T06:45:33.282Z,7.10
2018-07-06T06:48:01.966Z,6.40
2018-07-06T06:50:30.650Z,6.67
2018-07-06T06:52:59.452Z,6.43
2018-07-06T06:55:28.155Z,6.77
2018-07-06T06:57:56.911Z,6.93
2018-07-06T07:00:27.534Z,7.07
2018-07-06T07:02:54.191Z,7.57
2018-07-06T07:05:22.760Z,7.30
2018-07-06T07:07:51.257Z,7.07
2018-07-06T07:10:19.826Z,6.87
2018-07-06T07:12:48.423Z,7.33
2018-07-06T07:15:16.993Z,7.47
2018-07-06T07:17:45.675Z,7.83
2018-07-06T07:20:14.167Z,6.77
2018-07-06T07:22:42.843Z,7.23
2018-07-06T07:25:11.425Z,7.73
2018-07-06T07:27:40.106Z,7.87
2018-07-06T07:30:08.827Z,6.93
2018-07-06T07:32:37.282Z,7.23
2018-07-06T07:35:05.857Z,7.17
2018-07-06T07:37:34.459Z,6.73
2018-07-06T07:40:02.924Z,7.60
2018-07-06T07:42:31.607Z,7.50
2018-07-06T07:45:00.294Z,7.53
2018-07-06T07:47:29.414Z,7.97
2018-07-06T07:49:57.902Z,8.07
2018-07-06T07:52:31.781Z,7.40
2018-07-06T07:55:00.582Z,7.40
2018-07-06T07:57:29.206Z,7.90
2018-07-06T07:59:57.936Z,8.10
2018-07-06T08:02:26.623Z,7.83
2018-07-06T08:04:55.511Z,8.60
2018-07-06T08:07:24.213Z,7.70
2018-07-06T08:09:52.782Z,8.63
2018-07-06T08:12:21.363Z,8.73
2018-07-06T08:14:49.956Z,8.57
2018-07-06T08:17:18.530Z,8.17
2018-07-06T08:19:47.215Z,7.93
2018-07-06T08:22:15.800Z,8.33
2018-07-06T08:24:44.381Z,8.67
2018-07-06T08:27:12.967Z,8.03
2018-07-06T08:29:41.444Z,7.10
2018-07-06T08:32:09.922Z,7.87
2018-07-06T08:34:43.938Z,7.73
2018-07-06T08:37:28.082Z,8.57
2018-07-06T08:39:57.343Z,8.33
2018-07-06T08:42:27.192Z,7.50
2018-07-06T08:44:56.354Z,7.60
2018-07-06T08:47:24.974Z,7.53
2018-07-06T08:49:54.226Z,8.70
2018-07-06T08:52:22.697Z,7.57
2018-07-06T08:54:52.054Z,8.40
2018-07-06T08:57:21.457Z,7.77
2018-07-06T08:59:50.511Z,7.67
2018-07-06T09:02:19.459Z,7.37
2018-07-06T09:04:48.482Z,7.33
2018-07-06T09:07:17.223Z,7.10
2018-07-06T09:09:45.806Z,7.57
2018-07-06T09:12:14.489Z,7.07
2018-07-06T09:14:43.073Z,7.60
2018-07-06T09:17:13.089Z,8.00
2018-07-06T09:19:42.234Z,7.37
2018-07-06T09:22:10.873Z,7.40
2018-07-06T09:24:39.292Z,7.97
2018-07-06T09:27:07.860Z,8.00
2018-07-06T09:29:36.418Z,7.90
2018-07-06T09:32:05.027Z,8.23
2018-07-06T09:34:33.616Z,7.37
2018-07-06T09:37:02.116Z,8.70
2018-07-06T09:39:30.646Z,8.20
2018-07-06T09:41:59.141Z,8.00
2018-07-06T09:44:27.708Z,8.53
2018-07-06T09:46:56.291Z,8.50
2018-07-06T09:49:24.886Z,8.10
2018-07-06T09:51:53.661Z,8.00
2018-07-06T09:54:22.250Z,8.50
2018-07-06T09:56:50.733Z,7.67
2018-07-06T09:59:19.313Z,7.27
2018-07-06T10:01:47.790Z,8.73
2018-07-06T10:04:16.532Z,8.10
2018-07-06T10:06:45.068Z,9.37
2018-07-06T10:09:13.640Z,8.60
2018-07-06T10:11:42.331Z,9.33
2018-07-06T10:14:10.809Z,8.40
2018-07-06T10:16:39.335Z,7.97
2018-07-06T10:19:07.871Z,8.23
2018-07-06T10:21:36.656Z,7.60
2018-07-06T10:24:05.252Z,8.67
2018-07-06T10:26:33.822Z,8.23
2018-07-06T10:30:09.692Z,8.83
2018-07-06T10:32:38.369Z,8.80
2018-07-06T10:35:06.969Z,7.57
2018-07-06T10:37:35.456Z,8.20
2018-07-06T10:40:03.908Z,7.90
2018-07-06T10:42:32.704Z,8.20
2018-07-06T10:45:01.181Z,8.90
2018-07-06T10:47:29.767Z,9.23
2018-07-06T10:49:58.457Z,9.27
2018-07-06T10:52:27.036Z,9.00
2018-07-06T10:54:55.620Z,8.67
2018-07-06T10:57:24.199Z,9.20
2018-07-06T10:59:52.782Z,8.83
2018-07-06T11:02:21.328Z,10.57
2018-07-06T11:04:49.877Z,9.20
2018-07-06T11:07:18.433Z,8.60
2018-07-06T11:09:46.923Z,11.63
2018-07-06T11:12:15.595Z,9.50
2018-07-06T11:14:56.671Z,8.70
2018-07-06T11:17:25.166Z,8.50
2018-07-06T11:19:53.988Z,8.70
2018-07-06T11:22:22.520Z,9.07
2018-07-06T11:24:51.014Z,8.50
2018-07-06T11:27:19.587Z,9.30
2018-07-06T11:29:48.066Z,8.03
2018-07-06T11:32:16.855Z,8.80
2018-07-06T11:34:45.360Z,9.90
2018-07-06T11:37:13.919Z,7.93
2018-07-06T11:39:42.534Z,8.97
2018-07-06T11:42:11.024Z,8.83
2018-07-06T11:44:39.567Z,8.37
2018-07-06T11:47:08.042Z,9.23
2018-07-06T11:49:36.456Z,8.23
2018-07-06T11:52:04.939Z,8.40
2018-07-06T11:54:33.486Z,8.30
2018-07-06T11:57:02.071Z,9.00
2018-07-06T11:59:30.756Z,8.97
2018-07-06T12:01:59.336Z,8.87
2018-07-06T12:04:27.888Z,7.53
2018-07-06T12:06:56.502Z,8.33
2018-07-06T12:09:25.107Z,8.47
2018-07-06T12:11:53.714Z,8.50
2018-07-06T12:14:22.251Z,8.33
2018-07-06T12:16:50.833Z,8.30
2018-07-06T12:19:19.416Z,8.40
2018-07-06T12:21:47.901Z,8.30
2018-07-06T12:24:16.322Z,8.53
2018-07-06T12:26:44.862Z,7.87
2018-07-06T12:29:13.562Z,7.67
2018-07-06T12:31:42.129Z,7.90
2018-07-06T12:34:10.711Z,7.70
2018-07-06T12:36:39.220Z,8.10
2018-07-06T12:39:07.778Z,8.13
2018-07-06T12:41:36.395Z,7.37
2018-07-06T12:44:04.845Z,8.17
2018-07-06T12:46:33.514Z,8.30
2018-07-06T12:49:02.314Z,7.77
2018-07-06T12:51:30.791Z,7.77
2018-07-06T12:53:59.375Z,7.90
2018-07-06T12:56:27.957Z,7.70
2018-07-06T12:58:56.453Z,7.77
2018-07-06T13:01:25.021Z,7.90
2018-07-06T13:03:53.605Z,7.30
2018-07-06T13:06:22.186Z,7.20
2018-07-06T13:08:50.610Z,7.00
2018-07-06T13:11:19.048Z,6.43
2018-07-06T13:13:47.730Z,6.57
2018-07-06T13:16:16.315Z,7.57
2018-07-06T13:18:44.929Z,6.97
2018-07-06T13:21:13.480Z,7.57
2018-07-06T13:23:41.967Z,7.83
2018-07-06T13:26:10.648Z,6.80
2018-07-06T13:28:39.228Z,7.90
2018-07-06T13:31:07.828Z,6.97
2018-07-06T13:33:36.297Z,7.47
2018-07-06T13:36:04.948Z,7.13
2018-07-06T13:38:33.554Z,7.67
2018-07-06T13:41:02.045Z,6.73
2018-07-06T13:43:30.527Z,7.33
2018-07-06T13:46:00.518Z,8.70
2018-07-06T13:48:29.123Z,7.83
2018-07-06T13:50:57.601Z,8.13
2018-07-06T13:53:26.104Z,7.57
2018-07-06T13:55:54.668Z,8.37
2018-07-06T13:58:23.255Z,8.73
2018-07-06T14:00:51.834Z,8.33
2018-07-06T14:03:20.435Z,8.07
2018-07-06T14:05:49.037Z,8.07
2018-07-06T14:08:17.682Z,8.20
2018-07-06T14:10:46.473Z,7.63
2018-07-06T14:13:15.060Z,8.13
2018-07-06T14:15:43.643Z,7.73
2018-07-06T14:18:12.325Z,8.63
2018-07-06T14:20:40.767Z,7.77
2018-07-06T14:23:09.386Z,7.30
2018-07-06T14:25:37.970Z,7.50
2018-07-06T14:28:06.455Z,7.90
2018-07-06T14:30:35.137Z,7.97
2018-07-06T14:33:03.717Z,7.93
2018-07-06T14:35:32.303Z,7.77
2018-07-06T14:38:00.780Z,8.10
2018-07-06T14:40:29.468Z,8.33
2018-07-06T14:42:58.157Z,8.10
2018-07-06T14:45:26.537Z,8.33
2018-07-06T14:47:54.968Z,7.70
2018-07-06T14:50:23.496Z,7.90
2018-07-06T14:52:52.402Z,8.07
2018-07-06T14:55:20.970Z,7.30
2018-07-06T14:57:49.652Z,8.07
2018-07-06T15:00:18.148Z,7.60
2018-07-06T15:02:46.818Z,7.43
2018-07-06T15:05:15.399Z,8.70
2018-07-06T15:07:43.987Z,7.27
2018-07-06T15:10:12.470Z,7.23
2018-07-06T15:12:41.155Z,8.03
2018-07-06T15:15:09.518Z,6.67
2018-07-06T15:17:38.140Z,7.93
2018-07-06T15:20:06.802Z,7.80
2018-07-06T15:22:35.359Z,8.33
2018-07-06T15:25:04.166Z,8.43
2018-07-06T15:27:32.650Z,7.90
2018-07-06T15:30:01.150Z,7.90
2018-07-06T15:32:30.121Z,7.33
2018-07-06T15:34:58.700Z,7.67
2018-07-06T15:37:27.295Z,8.17
2018-07-06T15:39:55.723Z,8.17
2018-07-06T15:42:24.147Z,8.17
2018-07-06T15:44:52.729Z,7.73
2018-07-06T15:47:21.210Z,7.07
2018-07-06T15:49:49.839Z,7.70
2018-07-06T15:52:18.376Z,7.80
2018-07-06T15:54:46.969Z,8.87
2018-07-06T15:57:15.887Z,8.53
2018-07-06T15:59:44.638Z,8.30
2018-07-06T16:02:13.129Z,8.37
2018-07-06T16:04:41.650Z,8.30
2018-07-06T16:07:10.129Z,8.07
2018-07-06T16:09:38.660Z,7.33
2018-07-06T16:12:07.247Z,7.07
2018-07-06T16:14:35.762Z,7.77
2018-07-06T16:17:04.408Z,8.03
2018-07-06T16:19:33.054Z,8.53
2018-07-06T16:22:01.497Z,7.53
2018-07-06T16:24:30.058Z,7.73
2018-07-06T16:26:58.743Z,7.67
2018-07-06T16:29:27.425Z,8.33
2018-07-06T16:31:56.205Z,8.23
2018-07-06T16:34:24.533Z,9.13
2018-07-06T16:36:53.277Z,8.47
2018-07-06T16:39:21.864Z,9.40
2018-07-06T16:41:50.412Z,8.63
2018-07-06T16:44:18.820Z,7.70
2018-07-06T16:46:47.516Z,8.20
2018-07-06T16:49:16.195Z,8.40
2018-07-06T16:51:44.686Z,8.87
2018-07-06T16:54:13.256Z,9.23
2018-07-06T16:56:41.734Z,8.23
2018-07-06T16:59:10.158Z,8.90
2018-07-06T17:01:38.700Z,7.90
2018-07-06T17:04:07.287Z,8.77
2018-07-06T17:06:35.870Z,8.27
2018-07-06T17:09:05.475Z,9.60
2018-07-06T17:11:34.157Z,8.37
2018-07-06T17:14:02.741Z,8.97
2018-07-06T17:16:31.176Z,9.73
2018-07-06T17:18:59.807Z,8.50
2018-07-06T17:21:28.486Z,8.13
2018-07-06T17:23:57.077Z,7.73
2018-07-06T17:26:25.587Z,8.07
2018-07-06T17:28:53.931Z,7.87
2018-07-06T17:31:22.569Z,8.93
2018-07-06T17:33:51.203Z,7.83
2018-07-06T17:36:19.780Z,7.93
2018-07-06T17:38:48.392Z,8.20
2018-07-06T17:41:16.961Z,8.17
2018-07-06T17:43:45.637Z,8.40
2018-07-06T17:46:14.123Z,8.47
2018-07-06T17:48:42.702Z,8.33
2018-07-06T17:51:11.486Z,8.73
2018-07-06T17:53:39.877Z,9.00
2018-07-06T17:56:08.433Z,9.17
2018-07-06T17:58:37.028Z,8.83
2018-07-06T18:01:05.665Z,8.90
2018-07-06T18:03:34.297Z,8.73
2018-07-06T18:06:02.881Z,9.30
2018-07-06T18:08:31.376Z,8.47
2018-07-06T18:10:59.945Z,8.83
2018-07-06T18:13:28.636Z,10.20
2018-07-06T18:15:57.123Z,10.80
2018-07-06T18:18:25.898Z,9.57
2018-07-06T18:20:54.586Z,9.60
2018-07-06T18:23:23.276Z,10.13
2018-07-06T18:25:51.853Z,10.10
2018-07-06T18:28:20.435Z,10.97
2018-07-06T18:30:48.938Z,9.67
2018-07-06T18:33:17.602Z,10.07
2018-07-06T18:35:46.188Z,9.83
2018-07-06T18:38:14.732Z,9.67
2018-07-06T18:40:43.352Z,9.30
2018-07-06T18:43:11.933Z,10.13
2018-07-06T18:45:40.426Z,9.67
2018-07-06T18:48:08.893Z,9.83
2018-07-06T18:50:37.478Z,10.20
2018-07-06T18:53:06.219Z,9.60
2018-07-06T18:55:35.152Z,9.97
2018-07-06T18:58:03.840Z,10.00
2018-07-06T19:00:32.550Z,9.20
2018-07-06T19:03:01.116Z,9.00
2018-07-06T19:05:29.644Z,9.60
2018-07-06T19:07:59.098Z,8.30
2018-07-06T19:10:27.780Z,8.53
2018-07-06T19:12:56.463Z,8.53
2018-07-06T19:15:24.950Z,8.53
2018-07-06T19:17:53.526Z,7.77
2018-07-06T19:20:22.014Z,7.33
2018-07-06T19:22:50.598Z,7.77
2018-07-06T19:25:19.177Z,8.43
2018-07-06T19:27:47.661Z,9.13
2018-07-06T19:30:16.241Z,8.57
2018-07-06T19:32:45.029Z,8.93
2018-07-06T19:35:13.712Z,8.83
2018-07-06T19:37:42.295Z,9.40
2018-07-06T19:40:10.877Z,9.67
2018-07-06T19:42:39.362Z,9.67
2018-07-06T19:45:07.849Z,8.30
2018-07-06T19:47:36.623Z,7.33
2018-07-06T19:50:05.222Z,7.70
2018-07-06T19:52:33.711Z,7.03
2018-07-06T19:55:02.479Z,7.37
2018-07-06T19:57:31.165Z,7.80
2018-07-06T19:59:59.656Z,7.60
2018-07-06T20:02:28.231Z,8.30
2018-07-06T20:04:56.914Z,9.83
2018-07-06T20:07:25.391Z,11.10
2018-07-06T20:09:53.977Z,11.30
2018-07-06T20:12:22.561Z,10.47
2018-07-06T20:14:51.001Z,12.70
2018-07-06T20:17:20.033Z,9.90
2018-07-06T20:19:48.619Z,9.57
2018-07-06T20:22:17.022Z,9.57
2018-07-06T20:24:45.574Z,8.73
2018-07-06T20:27:14.072Z,8.93
2018-07-06T20:29:42.524Z,8.73
2018-07-06T20:32:11.120Z,8.97
2018-07-06T20:34:39.598Z,11.20
2018-07-06T20:37:08.101Z,8.50
2018-07-06T20:39:36.765Z,8.80
2018-07-06T20:42:05.346Z,7.87
2018-07-06T20:44:33.934Z,8.67
2018-07-06T20:47:02.516Z,8.27
2018-07-06T20:49:31.202Z,7.28
2018-07-06T20:51:59.918Z,7.70
2018-07-06T20:54:28.449Z,8.03
2018-07-06T20:56:57.157Z,8.33
2018-07-06T20:59:25.740Z,8.10
2018-07-06T21:01:54.427Z,8.67
2018-07-06T21:04:23.010Z,8.63
2018-07-06T21:06:51.597Z,7.90
2018-07-06T21:09:19.973Z,8.63
2018-07-06T21:11:48.552Z,8.30
2018-07-06T21:14:17.029Z,8.97
2018-07-06T21:16:45.718Z,10.93
2018-07-06T21:19:14.509Z,9.90
2018-07-06T21:21:42.986Z,9.33
2018-07-06T21:24:11.572Z,10.17
2018-07-06T21:26:40.154Z,9.45
2018-07-06T21:29:08.545Z,10.63
2018-07-06T21:31:37.113Z,10.60
2018-07-06T21:34:05.847Z,11.13
2018-07-06T21:36:34.297Z,11.57
2018-07-06T21:39:03.378Z,11.03
2018-07-06T21:41:31.754Z,12.43
2018-07-06T21:44:00.437Z,9.27
2018-07-06T21:46:29.022Z,10.63
2018-07-06T21:48:57.600Z,10.77
2018-07-06T21:51:26.185Z,11.13
2018-07-06T21:53:54.768Z,11.60
2018-07-06T21:56:23.232Z,10.93
2018-07-06T21:58:51.833Z,10.27
2018-07-06T22:01:20.517Z,9.03
2018-07-06T22:03:49.012Z,9.77
2018-07-06T22:06:17.395Z,8.83
2018-07-06T22:08:45.780Z,8.80
2018-07-06T22:11:14.448Z,14.80
2018-07-06T22:13:42.960Z,9.20
2018-07-06T22:16:11.507Z,10.40
2018-07-06T22:18:40.295Z,9.27
2018-07-06T22:21:08.875Z,9.03
2018-07-06T22:23:37.341Z,9.50
2018-07-06T22:26:05.945Z,9.07
2018-07-06T22:28:34.561Z,8.80
2018-07-06T22:31:02.830Z,9.10
2018-07-06T22:33:31.381Z,8.43
2018-07-06T22:35:59.861Z,8.73
2018-07-06T22:38:28.341Z,8.80
2018-07-06T22:40:56.926Z,9.20
2018-07-06T22:43:25.505Z,9.37
2018-07-06T22:45:53.980Z,10.97
2018-07-06T22:48:22.575Z,9.40
2018-07-06T22:50:51.193Z,9.80
2018-07-06T22:53:19.977Z,9.60
2018-07-06T22:55:48.381Z,9.80
2018-07-06T22:58:16.902Z,10.07
2018-07-06T23:00:45.290Z,10.00
2018-07-06T23:03:13.970Z,10.03
2018-07-06T23:05:42.549Z,10.43
2018-07-06T23:08:11.030Z,10.03
2018-07-06T23:10:39.712Z,9.67
2018-07-06T23:13:08.302Z,10.03
2018-07-06T23:15:36.781Z,13.37
2018-07-06T23:18:05.461Z,10.23
2018-07-06T23:20:34.044Z,10.33
2018-07-06T23:23:03.669Z,10.67
2018-07-06T23:25:33.702Z,9.90
2018-07-06T23:28:02.252Z,10.97
2018-07-06T23:30:30.742Z,11.07
2018-07-06T23:33:00.157Z,10.47
2018-07-06T23:35:28.826Z,10.17
2018-07-06T23:38:00.423Z,10.13
2018-07-06T23:40:28.864Z,10.87
2018-07-06T23:42:57.435Z,10.60
2018-07-06T23:45:26.054Z,10.00
2018-07-06T23:47:54.833Z,10.40
2018-07-06T23:50:23.704Z,10.27
2018-07-06T23:52:52.239Z,8.70
2018-07-06T23:55:20.966Z,9.13
2018-07-06T23:57:49.518Z,9.57
